Time;durP1;ratioP1;P1;durP2;ratioP2;P2;SDS_P1;SDS_P2;PMS_P1;PMS_P2;Temp;Humidity;BMP_temperature;BMP_pressure;BME280_temperature;BME280_humidity;BME280_pressure;Samples;Min_cycle;Max_cycle;Signal;HPM_P1;HPM_P2
2022/05/25 00:01:42;;;;;;;18.63;12.15;;;;;;;17.75;65.61;94812.53;5029301;28;20021;-76
2022/05/25 00:04:07;;;;;;;25.65;14.77;;;;;;;17.71;65.57;94808.88;5029528;28;20029;-76
2022/05/25 00:06:33;;;;;;;25.40;15.00;;;;;;;17.68;65.58;94809.44;5012162;28;20041;-77
2022/05/25 00:08:59;;;;;;;20.75;13.52;;;;;;;17.64;65.84;94806.53;5041077;28;20033;-76
2022/05/25 00:11:24;;;;;;;23.77;11.88;;;;;;;17.61;66.10;94803.69;5031168;28;20037;-76
2022/05/25 00:13:50;;;;;;;22.65;11.00;;;;;;;17.60;66.14;94813.41;5004230;28;20045;-77
2022/05/25 00:16:15;;;;;;;17.70;9.85;;;;;;;17.58;66.04;94820.00;5027680;28;20036;-76
2022/05/25 00:21:25;;;;;;;12.23;9.02;;;;;;;17.53;66.06;94820.03;5028378;28;20119;-77
2022/05/25 00:23:50;;;;;;;13.55;8.27;;;;;;;17.50;66.44;94823.22;5031517;28;20088;-76
2022/05/25 00:26:15;;;;;;;17.60;9.07;;;;;;;17.46;66.36;94811.69;5014743;28;20037;-76
2022/05/25 00:28:41;;;;;;;19.95;9.30;;;;;;;17.42;66.50;94808.81;5031083;28;20044;-76
2022/05/25 00:31:08;;;;;;;20.10;9.05;;;;;;;17.46;66.73;94809.06;5031619;28;20040;-76
2022/05/25 00:33:34;;;;;;;19.15;9.70;;;;;;;17.42;66.94;94808.03;5043528;28;20043;-76
2022/05/25 00:35:59;;;;;;;22.55;10.15;;;;;;;17.40;66.72;94814.34;5035903;28;20053;-77
2022/05/25 00:38:24;;;;;;;18.50;11.18;;;;;;;17.41;66.82;94815.16;5010213;28;20063;-77
2022/05/25 00:40:50;;;;;;;20.52;10.85;;;;;;;17.38;66.60;94811.19;5006667;28;20042;-77
2022/05/25 00:43:15;;;;;;;20.55;9.52;;;;;;;17.36;66.74;94813.31;5007370;28;20030;-77
2022/05/25 00:45:53;;;;;;;17.83;8.82;;;;;;;17.33;66.58;94818.34;5015036;28;20029;-77
2022/05/25 00:48:25;;;;;;;19.10;9.50;;;;;;;17.28;66.89;94821.00;5014941;28;20075;-76
2022/05/25 00:53:35;;;;;;;16.80;10.40;;;;;;;17.22;67.26;94816.81;5031224;28;20556;-77
2022/05/25 00:56:00;;;;;;;17.50;9.77;;;;;;;17.21;67.35;94815.25;5022398;28;20101;-76
2022/05/25 00:58:26;;;;;;;14.05;9.50;;;;;;;17.22;67.03;94817.63;5031360;28;20029;-77
2022/05/25 01:00:51;;;;;;;23.50;9.02;;;;;;;17.18;67.34;94816.59;5013607;28;20030;-77
2022/05/25 01:03:19;;;;;;;12.25;8.57;;;;;;;17.19;67.50;94812.91;4997888;28;20038;-77
2022/05/25 01:06:29;;;;;;;11.15;8.35;;;;;;;17.19;67.79;94818.16;5030241;28;20060;-77
2022/05/25 01:09:12;;;;;;;22.55;9.95;;;;;;;17.14;67.61;94826.09;5030988;28;20048;-78
2022/05/25 01:11:47;;;;;;;16.75;10.05;;;;;;;17.16;67.33;94825.81;5032123;28;20044;-77
2022/05/25 01:14:51;;;;;;;10.32;7.95;;;;;;;17.16;67.83;94828.44;5008980;28;20057;-77
2022/05/25 01:17:29;;;;;;;14.80;9.60;;;;;;;17.10;67.64;94830.31;5031685;28;20033;-75
2022/05/25 01:20:02;;;;;;;13.48;9.93;;;;;;;17.05;68.03;94833.75;5045967;28;20034;-75
2022/05/25 01:23:05;;;;;;;13.57;9.93;;;;;;;16.99;67.64;94834.84;5014812;28;20563;-76
2022/05/25 01:25:46;;;;;;;18.85;10.48;;;;;;;16.97;67.94;94842.22;5030120;28;20535;-76
2022/05/25 01:28:33;;;;;;;13.25;10.18;;;;;;;16.96;67.94;94834.59;5032102;28;20037;-77
2022/05/25 01:30:58;;;;;;;19.95;10.32;;;;;;;16.94;67.77;94832.25;5030794;28;20396;-76
2022/05/25 01:33:30;;;;;;;16.27;10.63;;;;;;;16.92;67.99;94838.81;5029729;28;20029;-76
2022/05/25 01:36:06;;;;;;;19.77;11.02;;;;;;;16.93;68.18;94835.16;5021880;28;20108;-76
2022/05/25 01:38:40;;;;;;;27.05;10.30;;;;;;;16.93;67.80;94835.94;5022026;28;20076;-76
2022/05/25 01:41:13;;;;;;;16.13;10.25;;;;;;;16.90;67.97;94838.28;5014274;28;20140;-76
2022/05/25 01:43:43;;;;;;;17.98;11.23;;;;;;;16.86;67.82;94839.88;5029793;28;20520;-76
2022/05/25 01:46:13;;;;;;;21.13;10.88;;;;;;;16.86;67.96;94839.88;5005282;28;20048;-76
2022/05/25 01:48:39;;;;;;;22.90;11.93;;;;;;;16.86;68.13;94834.63;5022787;28;20102;-76
2022/05/25 01:51:16;;;;;;;17.13;10.30;;;;;;;16.85;68.10;94839.09;5005235;28;20473;-76
2022/05/25 01:53:43;;;;;;;19.23;11.55;;;;;;;16.83;68.10;94837.81;5005474;28;20087;-75
2022/05/25 01:56:09;;;;;;;20.50;10.50;;;;;;;16.82;68.10;94841.50;5012621;28;20045;-76
2022/05/25 01:58:39;;;;;;;18.30;10.63;;;;;;;16.81;68.30;94848.59;4997302;28;20416;-76
2022/05/25 02:01:05;;;;;;;19.00;10.63;;;;;;;16.82;68.35;94849.38;5005934;28;20029;-75
2022/05/25 02:06:39;;;;;;;26.15;11.48;;;;;;;16.77;68.08;94853.59;5007136;28;20052;-76
2022/05/25 02:09:29;;;;;;;17.52;9.80;;;;;;;16.74;68.15;94864.63;5006153;28;20386;-76
2022/05/25 02:12:10;;;;;;;25.48;10.63;;;;;;;16.73;67.94;94865.66;5030794;28;20607;-76
2022/05/25 02:14:49;;;;;;;21.67;11.90;;;;;;;16.73;67.79;94864.88;5005679;28;20044;-76
2022/05/25 02:17:33;;;;;;;21.40;11.85;;;;;;;16.69;68.37;94867.28;5020882;28;20037;-76
2022/05/25 02:20:06;;;;;;;31.50;12.20;;;;;;;16.65;68.12;94868.06;5031004;28;20029;-76
2022/05/25 02:22:44;;;;;;;30.98;12.73;;;;;;;16.62;68.49;94872.00;5006412;28;20091;-76
2022/05/25 02:25:12;;;;;;;25.08;12.65;;;;;;;16.62;68.60;94877.25;5028812;28;20120;-76
2022/05/25 02:27:47;;;;;;;33.45;12.30;;;;;;;16.60;68.61;94878.56;5029072;28;20033;-75
2022/05/25 02:30:15;;;;;;;19.25;12.48;;;;;;;16.60;68.48;94884.63;4988872;28;20037;-77
2022/05/25 02:32:49;;;;;;;22.05;12.05;;;;;;;16.57;68.73;94885.13;5020796;28;20068;-77
2022/05/25 02:35:14;;;;;;;28.63;11.13;;;;;;;16.55;68.71;94889.84;5029315;28;20505;-76
2022/05/25 02:37:40;;;;;;;24.17;11.68;;;;;;;16.53;68.56;94891.97;5029384;28;20040;-75
2022/05/25 02:40:07;;;;;;;25.95;11.75;;;;;;;16.47;68.58;94883.31;5012931;28;20040;-76
2022/05/25 02:42:33;;;;;;;21.58;10.98;;;;;;;16.46;68.89;94899.34;4990465;28;20048;-76
2022/05/25 02:44:58;;;;;;;20.60;10.55;;;;;;;16.46;69.51;94889.63;5052376;28;20022;-76
2022/05/25 02:47:24;;;;;;;18.67;10.45;;;;;;;16.43;69.20;94894.59;5024361;28;20612;-76
2022/05/25 02:49:49;;;;;;;16.00;10.80;;;;;;;16.41;69.27;94891.47;5011946;28;20026;-76
2022/05/25 02:52:14;;;;;;;20.90;11.25;;;;;;;16.41;69.08;94891.47;4987924;28;20039;-76
2022/05/25 02:54:40;;;;;;;23.08;11.43;;;;;;;16.41;69.25;94894.09;5003682;28;20646;-77
2022/05/25 02:57:06;;;;;;;17.65;10.85;;;;;;;16.41;69.10;94894.09;5029860;28;20742;-76
2022/05/25 02:59:32;;;;;;;26.27;10.80;;;;;;;16.41;68.95;94897.50;5028426;28;20107;-76
2022/05/25 03:01:57;;;;;;;20.25;11.32;;;;;;;16.40;68.91;94901.16;5004164;28;20029;-75
2022/05/25 03:04:22;;;;;;;27.80;11.05;;;;;;;16.45;68.98;94908.28;5004374;28;20041;-76
2022/05/25 03:06:48;;;;;;;19.35;11.23;;;;;;;16.48;68.57;94907.72;5013211;28;20033;-76
2022/05/25 03:09:13;;;;;;;22.98;11.13;;;;;;;16.47;68.52;94903.53;5046254;28;20029;-75
2022/05/25 03:11:40;;;;;;;32.42;13.10;;;;;;;16.49;68.07;94914.56;5026914;28;20037;-76
2022/05/25 03:14:06;;;;;;;33.25;13.13;;;;;;;16.50;68.19;94909.03;5014057;28;20030;-76
2022/05/25 03:16:32;;;;;;;25.85;12.38;;;;;;;16.53;68.00;94912.97;5020998;28;20036;-76
2022/05/25 03:18:58;;;;;;;23.20;12.38;;;;;;;16.56;67.72;94928.19;5021435;28;20581;-76
2022/05/25 03:21:25;;;;;;;26.58;13.00;;;;;;;16.62;67.52;94927.13;5004367;28;20492;-76
2022/05/25 03:23:50;;;;;;;22.48;12.85;;;;;;;16.68;67.25;94927.94;5028306;28;20025;-76
2022/05/25 03:26:16;;;;;;;28.15;14.70;;;;;;;16.78;67.11;94928.69;4995279;28;20025;-77
2022/05/25 03:28:41;;;;;;;25.13;13.93;;;;;;;16.85;66.57;94927.63;5004187;28;20041;-76
2022/05/25 03:31:06;;;;;;;23.80;13.02;;;;;;;16.92;66.70;94935.97;4995501;28;20029;-76
2022/05/25 03:33:32;;;;;;;40.42;13.95;;;;;;;16.98;66.81;94943.59;5028541;28;20034;-76
2022/05/25 03:35:58;;;;;;;41.80;14.95;;;;;;;17.03;66.20;94945.41;5003608;28;20041;-75
2022/05/25 03:38:23;;;;;;;57.15;14.68;;;;;;;17.11;65.74;94952.75;5028486;28;20037;-76
2022/05/25 03:40:49;;;;;;;40.05;12.80;;;;;;;17.22;65.34;94949.00;5003752;28;20037;-77
2022/05/25 03:43:15;;;;;;;32.08;12.63;;;;;;;17.33;65.00;94942.66;5003235;28;20030;-76
2022/05/25 03:45:41;;;;;;;24.35;13.23;;;;;;;17.45;65.19;94946.81;5011794;28;20029;-75
2022/05/25 03:48:07;;;;;;;35.10;10.95;;;;;;;17.60;65.00;94952.00;5029630;28;20040;-77
2022/05/25 03:50:39;;;;;;;26.02;11.95;;;;;;;17.78;64.61;94961.13;4987789;28;20116;-78
2022/05/25 03:53:06;;;;;;;37.05;12.45;;;;;;;17.98;64.09;94968.88;5028396;28;20029;-78
2022/05/25 03:55:33;;;;;;;40.78;11.85;;;;;;;18.20;63.13;94969.22;5004257;28;20587;-78
2022/05/25 03:57:58;;;;;;;23.48;10.48;;;;;;;18.45;62.60;94965.59;5027542;28;20040;-78
2022/05/25 04:00:24;;;;;;;29.15;10.23;;;;;;;18.80;61.81;94966.34;5011638;28;20091;-77
2022/05/25 04:02:49;;;;;;;23.85;9.52;;;;;;;19.71;59.18;94965.31;5012097;28;20037;-78
2022/05/25 04:05:14;;;;;;;24.65;8.77;;;;;;;20.94;55.52;94959.63;5011972;28;20040;-77
2022/05/25 04:07:42;;;;;;;25.25;9.48;;;;;;;22.10;51.80;94960.19;5027639;28;20070;-76
2022/05/25 04:10:11;;;;;;;22.05;7.85;;;;;;;23.26;48.82;94967.06;5035817;28;20029;-76
2022/05/25 04:12:36;;;;;;;28.27;8.95;;;;;;;24.31;46.22;94968.81;5043481;28;20551;-76
2022/05/25 04:15:02;;;;;;;28.55;6.93;;;;;;;25.14;43.76;94974.56;5029239;28;20034;-77
2022/05/25 04:17:28;;;;;;;20.70;6.97;;;;;;;25.84;42.36;94963.53;5027491;28;20032;-77
2022/05/25 04:19:54;;;;;;;21.67;6.90;;;;;;;26.57;40.81;94958.56;5011460;28;20029;-77
2022/05/25 04:22:20;;;;;;;20.85;7.22;;;;;;;27.54;38.43;94962.47;5029142;28;20037;-77
2022/05/25 04:24:45;;;;;;;13.18;7.28;;;;;;;28.44;36.58;94962.03;5027811;28;20036;-77
2022/05/25 04:27:12;;;;;;;13.50;7.32;;;;;;;29.14;34.93;94956.22;5027179;28;20041;-77
2022/05/25 04:29:38;;;;;;;15.00;7.72;;;;;;;29.74;33.17;94962.19;4994393;28;20499;-77
2022/05/25 04:32:06;;;;;;;16.52;7.97;;;;;;;30.56;32.13;94963.88;5027452;28;20091;-77
2022/05/25 04:34:32;;;;;;;23.45;7.72;;;;;;;31.28;30.37;94966.72;5028824;28;20044;-77
2022/05/25 04:37:48;;;;;;;15.07;7.65;;;;;;;31.96;29.82;94968.50;5010853;28;20061;-77
2022/05/25 04:39:42;;;;;;;16.38;6.80;;;;;;;32.52;28.60;94962.25;5030544;28;20236;-77
2022/05/25 04:42:08;;;;;;;10.60;6.78;;;;;;;33.04;28.42;94961.28;5003768;28;20081;-78
2022/05/25 04:44:33;;;;;;;13.63;5.70;;;;;;;33.53;27.61;94960.16;5029032;28;20085;-76
2022/05/25 04:46:59;;;;;;;14.88;7.68;;;;;;;33.96;25.63;94961.19;5010832;28;20041;-76
2022/05/25 04:49:26;;;;;;;17.65;7.38;;;;;;;33.19;26.93;94967.56;5027622;28;20452;-77
2022/05/25 04:51:52;;;;;;;14.43;7.60;;;;;;;32.70;27.80;94965.13;5027942;28;20045;-75
2022/05/25 04:54:17;;;;;;;12.93;7.82;;;;;;;32.17;28.65;94967.97;5012729;28;20045;-76
2022/05/25 04:59:27;;;;;;;19.30;9.07;;;;;;;32.04;29.39;94969.34;5027256;28;20076;-78
2022/05/25 05:01:52;;;;;;;28.83;9.02;;;;;;;32.92;27.92;94968.88;5027557;28;20045;-76
2022/05/25 05:04:18;;;;;;;18.17;9.15;;;;;;;33.75;26.68;94961.06;4994422;28;20025;-77
2022/05/25 05:06:44;;;;;;;18.73;8.73;;;;;;;34.63;26.14;94959.16;4994476;28;20037;-77
2022/05/25 05:09:10;;;;;;;23.85;9.98;;;;;;;35.57;24.48;94962.38;5031408;28;20029;-77
2022/05/25 05:11:37;;;;;;;21.75;9.60;;;;;;;36.47;22.80;94966.41;5030952;28;20060;-77
2022/05/25 05:14:03;;;;;;;22.58;9.20;;;;;;;37.17;22.38;94966.41;5015834;28;20969;-77
2022/05/25 05:16:29;;;;;;;17.67;7.97;;;;;;;38.10;21.42;94967.13;5035612;28;20482;-77
2022/05/25 05:18:54;;;;;;;18.30;7.57;;;;;;;38.95;20.11;94983.56;5046381;28;20059;-77
2022/05/25 05:21:20;;;;;;;9.45;6.53;;;;;;;39.73;19.76;94978.88;5032759;28;20032;-78
2022/05/25 05:23:45;;;;;;;14.73;5.63;;;;;;;40.16;18.98;94967.97;5032223;28;20033;-77
2022/05/25 05:26:11;;;;;;;15.07;5.70;;;;;;;39.51;19.06;94983.88;5031562;28;20029;-78
2022/05/25 05:28:38;;;;;;;13.48;5.85;;;;;;;40.19;18.51;94978.81;5014074;28;20118;-77
2022/05/25 05:31:16;;;;;;;12.25;5.47;;;;;;;40.66;18.21;94978.63;5022016;28;20037;-78
2022/05/25 05:33:42;;;;;;;11.25;5.18;;;;;;;41.01;18.05;94988.03;5007905;28;20106;-77
2022/05/25 05:36:20;;;;;;;23.73;5.53;;;;;;;41.50;17.44;94990.81;5031022;28;20501;-78
2022/05/25 05:38:49;;;;;;;13.88;5.03;;;;;;;42.21;16.80;94994.47;5032866;28;20572;-77
2022/05/25 05:41:14;;;;;;;8.88;4.60;;;;;;;42.89;16.42;94991.78;5027588;28;20094;-77
2022/05/25 05:43:48;;;;;;;19.55;4.78;;;;;;;43.25;15.70;95002.41;5018845;28;20033;-77
2022/05/25 05:46:13;;;;;;;12.30;5.22;;;;;;;43.67;15.67;95005.78;5011275;28;20036;-78
2022/05/25 05:48:39;;;;;;;16.08;4.85;;;;;;;43.81;14.94;95002.59;5035624;28;20033;-78
2022/05/25 05:51:04;;;;;;;11.20;4.85;;;;;;;44.14;15.00;94996.78;5034504;28;20040;-77
2022/05/25 05:53:30;;;;;;;10.88;4.90;;;;;;;44.67;14.63;94991.34;5019011;28;20033;-77
2022/05/25 05:55:56;;;;;;;14.98;4.85;;;;;;;45.03;14.88;94990.78;5035492;28;20047;-78
2022/05/25 05:58:22;;;;;;;14.15;5.07;;;;;;;45.25;14.29;94990.72;5032052;28;20021;-79
2022/05/25 06:00:47;;;;;;;23.27;5.05;;;;;;;45.62;14.01;94997.84;5031392;28;20532;-79
2022/05/25 06:03:13;;;;;;;12.43;5.05;;;;;;;45.83;13.53;94995.44;5033010;28;20044;-79
2022/05/25 06:05:39;;;;;;;13.55;5.30;;;;;;;46.02;13.76;94997.00;5031377;28;20021;-78
2022/05/25 06:08:09;;;;;;;11.38;4.68;;;;;;;45.93;13.56;95005.22;5031832;28;20045;-78
2022/05/25 06:10:36;;;;;;;16.77;4.97;;;;;;;45.90;13.54;95000.66;5015246;28;20041;-78
2022/05/25 06:13:01;;;;;;;10.57;5.30;;;;;;;45.83;13.37;95009.19;5014845;28;20030;-78
2022/05/25 06:20:54;;;;;;;13.60;5.00;;;;;;;45.26;14.06;94997.78;5030117;28;20049;-78
2022/05/25 06:23:20;;;;;;;13.20;5.80;;;;;;;45.08;13.87;95001.19;5014105;28;20033;-77
2022/05/25 06:25:45;;;;;;;15.10;5.55;;;;;;;44.75;14.29;95015.34;5031979;28;20030;-78
2022/05/25 06:28:11;;;;;;;15.38;5.15;;;;;;;44.60;14.48;95009.63;5032078;28;20033;-78
2022/05/25 06:30:36;;;;;;;10.07;5.55;;;;;;;43.92;14.87;95010.44;5030730;28;20033;-77
2022/05/25 06:33:04;;;;;;;12.05;5.13;;;;;;;43.60;15.41;95000.50;5031777;28;20038;-77
2022/05/25 06:35:30;;;;;;;20.48;6.25;;;;;;;43.42;15.22;94999.13;5013706;28;20029;-78
2022/05/25 06:37:55;;;;;;;16.27;6.00;;;;;;;43.57;15.30;95001.41;5030418;28;20523;-78
2022/05/25 06:40:21;;;;;;;11.38;5.22;;;;;;;43.61;15.19;95004.78;5031895;28;20115;-78
2022/05/25 06:42:46;;;;;;;16.50;5.93;;;;;;;43.26;15.63;94996.50;5013746;28;20520;-78
2022/05/25 06:45:12;;;;;;;17.45;6.47;;;;;;;43.01;15.43;94994.53;5014102;28;20107;-77
2022/05/25 06:47:37;;;;;;;12.85;5.80;;;;;;;42.95;16.08;95006.47;5014073;28;20041;-80
2022/05/25 06:50:04;;;;;;;16.55;6.38;;;;;;;42.47;16.24;95009.00;5031125;28;20026;-78
2022/05/25 06:52:29;;;;;;;20.15;6.78;;;;;;;42.00;16.50;95008.69;5030150;28;20033;-78
2022/05/25 06:54:55;;;;;;;18.00;6.43;;;;;;;41.24;17.41;95010.91;5014291;28;20068;-78
2022/05/25 06:57:20;;;;;;;13.98;5.95;;;;;;;40.57;17.93;95007.69;5031154;28;20021;-79
2022/05/25 06:59:46;;;;;;;19.98;6.57;;;;;;;40.06;18.95;95012.53;5041069;28;20040;-78
2022/05/25 07:02:11;;;;;;;16.52;6.80;;;;;;;39.71;19.31;95014.69;4997630;28;20097;-76
2022/05/25 07:04:37;;;;;;;16.77;6.80;;;;;;;39.28;19.90;95020.78;5012180;28;20029;-78
2022/05/25 07:07:03;;;;;;;23.63;6.28;;;;;;;38.98;20.32;95018.09;5030450;28;20071;-78
2022/05/25 07:09:28;;;;;;;18.92;7.30;;;;;;;38.24;20.48;95014.31;5028556;28;20037;-78
2022/05/25 07:11:54;;;;;;;26.20;7.30;;;;;;;37.36;21.65;95020.13;5029536;28;20492;-78
2022/05/25 07:14:19;;;;;;;13.30;7.63;;;;;;;36.96;22.13;95022.31;5030773;28;20022;-81
2022/05/25 07:16:44;;;;;;;18.50;7.28;;;;;;;36.48;22.85;95011.31;5029436;28;20041;-78
2022/05/25 07:19:10;;;;;;;18.70;7.57;;;;;;;36.08;23.92;95009.84;5013759;28;20082;-77
2022/05/25 07:21:35;;;;;;;22.73;6.97;;;;;;;35.88;23.63;95012.22;5035505;28;20039;-76
2022/05/25 07:24:01;;;;;;;23.48;6.68;;;;;;;35.69;24.46;95012.59;5031122;28;20165;-77
2022/05/25 07:26:29;;;;;;;14.63;7.80;;;;;;;35.36;24.69;95027.28;5012007;28;20100;-76
2022/05/25 07:28:54;;;;;;;14.57;8.23;;;;;;;35.14;24.91;95013.69;5031474;28;20166;-77
2022/05/25 07:31:21;;;;;;;9.98;6.22;;;;;;;35.03;25.49;95015.63;5029325;28;20466;-77
2022/05/25 07:33:48;;;;;;;11.75;7.22;;;;;;;34.81;25.18;95024.81;5028526;28;20501;-77
2022/05/25 07:36:13;;;;;;;20.38;7.30;;;;;;;34.53;25.75;95014.72;5029187;28;20034;-77
2022/05/25 07:38:42;;;;;;;14.75;6.72;;;;;;;34.25;26.62;95015.31;5027955;28;20040;-76
2022/05/25 07:41:07;;;;;;;21.52;7.60;;;;;;;34.18;26.67;95007.19;5007808;28;20506;-77
2022/05/25 07:43:33;;;;;;;17.13;8.15;;;;;;;33.73;26.72;95001.91;5027915;28;20033;-77
2022/05/25 07:48:26;;;;;;;15.93;8.27;;;;;;;33.25;26.96;95000.34;5019452;28;20057;-75
2022/05/25 07:50:51;;;;;;;13.45;7.72;;;;;;;32.78;27.48;94993.72;5030985;28;20034;-77
2022/05/25 07:56:03;;;;;;;26.02;8.27;;;;;;;32.54;28.31;95003.06;5029579;28;20124;-77
2022/05/25 07:58:31;;;;;;;12.38;8.70;;;;;;;32.48;28.35;95001.84;4996106;28;20034;-77
2022/05/25 08:00:59;;;;;;;30.30;8.63;;;;;;;32.56;29.35;95000.00;5028139;28;20567;-77
2022/05/25 08:06:09;;;;;;;29.88;8.60;;;;;;;32.01;30.10;95000.44;5014538;28;20180;-77
2022/05/25 08:08:35;;;;;;;23.58;9.30;;;;;;;31.81;30.29;94997.09;5011361;28;20434;-78
2022/05/25 08:11:06;;;;;;;19.40;8.77;;;;;;;31.47;30.48;94993.50;5011402;28;20978;-77
2022/05/25 08:13:33;;;;;;;16.05;8.25;;;;;;;31.21;31.26;94988.09;5029531;28;20025;-77
2022/05/25 08:15:59;;;;;;;25.40;8.45;;;;;;;31.23;30.98;94988.50;5008945;28;20018;-75
2022/05/25 08:18:24;;;;;;;18.85;8.10;;;;;;;31.17;31.14;94981.84;5010438;28;20025;-76
2022/05/25 08:20:50;;;;;;;16.85;8.30;;;;;;;31.20;31.53;94979.25;5030721;28;20041;-76
2022/05/25 08:23:16;;;;;;;19.65;7.30;;;;;;;31.23;32.23;94983.13;5029834;28;20033;-76
2022/05/25 08:28:16;;;;;;;15.50;8.52;;;;;;;31.34;31.64;95000.97;5260358;22;20046;-77
2022/05/25 08:30:43;;;;;;;32.58;7.30;;;;;;;31.45;31.69;95003.06;5002910;28;20117;-77
2022/05/25 08:33:08;;;;;;;13.98;8.00;;;;;;;31.36;31.25;95000.63;5008217;28;20033;-78
2022/05/25 08:35:34;;;;;;;15.55;6.32;;;;;;;31.29;33.09;95000.50;4994309;28;20138;-75
2022/05/25 08:37:59;;;;;;;21.33;7.63;;;;;;;31.02;32.74;95000.41;4986561;28;20083;-76
2022/05/25 08:40:26;;;;;;;19.95;7.22;;;;;;;30.92;33.54;95002.94;5028908;28;20038;-76
2022/05/25 08:42:56;;;;;;;16.80;8.73;;;;;;;30.28;32.79;95007.03;4995501;28;20037;-76
2022/05/25 08:45:22;;;;;;;26.00;9.30;;;;;;;29.94;33.71;95005.88;5031535;28;20037;-75
2022/05/25 08:47:50;;;;;;;18.35;9.82;;;;;;;29.60;34.38;95010.88;4989474;28;20033;-76
2022/05/25 08:50:25;;;;;;;18.30;6.72;;;;;;;29.60;35.51;95010.88;5014133;28;20107;-78
2022/05/25 08:52:55;;;;;;;18.40;6.72;;;;;;;29.78;34.81;95001.38;4996972;28;20046;-76
2022/05/25 08:55:35;;;;;;;14.75;7.47;;;;;;;29.89;35.08;95007.72;5032003;28;20079;-74
2022/05/25 08:58:01;;;;;;;25.45;8.18;;;;;;;29.86;34.32;95010.34;5031312;28;20045;-72
2022/05/25 09:00:26;;;;;;;19.50;8.05;;;;;;;29.92;34.72;95005.47;5012965;28;20045;-72
2022/05/25 09:03:06;;;;;;;12.50;6.03;;;;;;;29.98;35.02;95006.78;4995060;28;21042;-73
2022/05/25 09:05:34;;;;;;;19.85;8.88;;;;;;;29.92;34.66;95010.81;5014297;28;20045;-73
2022/05/25 09:08:02;;;;;;;15.50;8.02;;;;;;;29.82;35.11;95006.81;5013182;28;20424;-73
2022/05/25 09:10:29;;;;;;;15.02;8.85;;;;;;;29.52;34.66;94993.09;5013297;28;20124;-73
2022/05/25 09:13:07;;;;;;;15.85;7.78;;;;;;;29.42;36.42;95001.63;5031760;28;20034;-73
2022/05/25 09:16:15;;;;;;;20.85;9.20;;;;;;;29.45;35.19;95003.59;5014671;28;20116;-73
2022/05/25 09:18:23;;;;;;;36.13;9.32;;;;;;;29.22;35.99;95012.28;5030528;28;20194;-73
2022/05/25 09:20:49;;;;;;;15.43;6.53;;;;;;;29.09;36.61;95008.09;4988523;28;20548;-73
2022/05/25 09:23:15;;;;;;;21.55;7.70;;;;;;;29.08;36.21;95014.59;5031401;28;20446;-72
2022/05/25 09:25:40;;;;;;;14.75;8.32;;;;;;;28.94;36.35;95009.66;4998118;28;20040;-73
2022/05/25 09:28:16;;;;;;;16.33;6.30;;;;;;;28.99;37.49;95014.00;4996750;28;20041;-73
2022/05/25 09:30:43;;;;;;;20.77;6.75;;;;;;;29.08;37.18;95011.91;5013885;28;20038;-73
2022/05/25 09:33:13;;;;;;;21.48;7.70;;;;;;;29.22;36.20;95017.63;5013471;28;20029;-73
2022/05/25 09:35:42;;;;;;;27.27;8.77;;;;;;;29.12;36.45;95007.41;5013493;28;20037;-75
2022/05/25 09:38:43;;;;;;;18.77;8.20;;;;;;;29.00;36.44;95010.19;4997386;28;20041;-74
2022/05/25 09:41:19;;;;;;;17.23;9.27;;;;;;;28.99;36.58;95014.78;5031267;28;20034;-74
2022/05/25 09:43:45;;;;;;;10.55;7.63;;;;;;;29.04;37.59;95004.91;5013957;28;20449;-73
2022/05/25 09:46:39;;;;;;;17.58;8.38;;;;;;;29.03;37.04;95001.47;5014507;28;20091;-74
2022/05/25 09:49:06;;;;;;;24.60;8.52;;;;;;;28.96;37.90;95003.94;5011235;28;20445;-74
2022/05/25 09:51:36;;;;;;;23.50;9.40;;;;;;;28.61;37.44;94996.50;4997236;28;20386;-74
2022/05/25 09:54:06;;;;;;;23.73;7.68;;;;;;;28.49;37.88;94988.56;4996489;28;20478;-73
2022/05/25 09:56:36;;;;;;;18.95;8.27;;;;;;;28.59;37.42;94980.03;5013349;28;20041;-73
2022/05/25 09:59:07;;;;;;;17.23;7.78;;;;;;;28.73;38.80;94978.84;5030703;28;20117;-73
2022/05/25 10:01:46;;;;;;;21.00;8.60;;;;;;;28.74;37.60;94970.47;5003335;28;20030;-75
2022/05/25 10:04:18;;;;;;;15.57;7.55;;;;;;;28.80;38.21;94963.78;5002266;28;20284;-73
2022/05/25 10:06:50;;;;;;;18.27;7.53;;;;;;;28.86;37.79;94964.28;4995643;28;20029;-74
2022/05/25 10:09:25;;;;;;;27.05;8.52;;;;;;;28.93;37.36;94961.81;5030906;28;20049;-74
2022/05/25 10:11:53;;;;;;;17.58;6.78;;;;;;;28.99;37.75;94961.22;5011822;28;20417;-74
2022/05/25 10:14:19;;;;;;;17.65;7.53;;;;;;;29.01;36.84;94958.19;5031242;28;20505;-75
2022/05/25 10:16:45;;;;;;;15.52;7.25;;;;;;;29.02;37.41;94970.47;5030103;28;20042;-74
2022/05/25 10:19:14;;;;;;;20.58;7.35;;;;;;;29.04;37.49;94965.53;5013263;28;20087;-74
2022/05/25 10:21:45;;;;;;;20.40;7.82;;;;;;;29.08;37.09;94974.41;4997563;28;20037;-74
2022/05/25 10:24:25;;;;;;;14.68;7.30;;;;;;;29.02;37.39;94959.75;4997705;28;20034;-75
2022/05/25 10:26:55;;;;;;;16.55;7.45;;;;;;;29.09;37.76;94967.16;5029576;28;20512;-74
2022/05/25 10:38:21;;;;;;;29.52;7.25;;;;;;;29.02;36.15;94948.25;5027919;28;20108;-74
2022/05/25 10:40:46;;;;;;;13.35;6.75;;;;;;;28.95;37.49;94940.81;4994440;28;20712;-74
2022/05/25 10:43:17;;;;;;;15.77;6.78;;;;;;;29.00;37.17;94935.22;5010842;28;20034;-77
2022/05/25 10:45:44;;;;;;;19.10;6.82;;;;;;;29.02;37.36;94927.63;5010683;28;20029;-75
2022/05/25 10:48:13;;;;;;;22.10;7.32;;;;;;;29.06;37.04;94928.47;5010456;28;20064;-76
2022/05/25 10:50:57;;;;;;;13.05;6.47;;;;;;;29.06;37.02;94931.16;5010335;28;20025;-76
2022/05/25 10:53:43;;;;;;;19.60;6.68;;;;;;;29.09;37.49;94935.81;5032189;28;20049;-76
2022/05/25 10:56:27;;;;;;;11.68;6.50;;;;;;;29.05;36.89;94926.91;5012424;28;20064;-76
2022/05/25 10:58:56;;;;;;;13.68;6.25;;;;;;;29.04;37.23;94932.63;5006679;28;20523;-75
2022/05/25 11:01:54;;;;;;;21.23;6.82;;;;;;;29.01;37.14;94925.28;5012914;28;20029;-76
2022/05/25 11:04:45;;;;;;;20.35;6.55;;;;;;;28.99;36.08;94917.59;5003683;28;20467;-76
2022/05/25 11:07:29;;;;;;;15.82;6.43;;;;;;;28.98;36.19;94918.72;5013672;28;20036;-76
2022/05/25 11:10:13;;;;;;;17.42;6.65;;;;;;;28.98;36.14;94910.69;5029020;28;20033;-76
2022/05/25 11:13:03;;;;;;;23.55;7.85;;;;;;;28.98;35.17;94902.66;5028284;28;20037;-76
2022/05/25 11:15:47;;;;;;;18.00;6.55;;;;;;;29.03;36.42;94907.75;5010545;28;20037;-76
2022/05/25 11:18:19;;;;;;;18.83;6.60;;;;;;;29.04;36.61;94903.94;5011896;28;20039;-76
2022/05/25 11:21:26;;;;;;;14.20;6.10;;;;;;;29.03;36.32;94902.41;5010414;28;20038;-76
2022/05/25 11:24:18;;;;;;;18.10;6.10;;;;;;;29.00;35.72;94897.75;5011375;28;20037;-76
2022/05/25 11:26:56;;;;;;;27.35;6.40;;;;;;;29.11;35.14;94898.75;5014612;28;20405;-77
2022/05/25 11:29:25;;;;;;;16.45;6.32;;;;;;;29.13;35.30;94896.53;5011167;28;20405;-77
2022/05/25 11:31:56;;;;;;;18.70;6.47;;;;;;;29.15;35.50;94894.28;5028949;28;20083;-77
2022/05/25 11:34:41;;;;;;;19.15;5.97;;;;;;;29.15;35.33;94896.19;5012958;28;20681;-76
2022/05/25 11:37:16;;;;;;;22.70;6.53;;;;;;;29.14;34.66;94898.06;4979584;28;20571;-76
2022/05/25 11:39:54;;;;;;;19.15;6.47;;;;;;;29.15;34.93;94888.91;4988436;28;20056;-77
2022/05/25 11:42:51;;;;;;;20.02;6.05;;;;;;;29.16;35.72;94884.34;5011145;28;20068;-74
2022/05/25 11:45:24;;;;;;;22.20;5.57;;;;;;;29.15;35.46;94878.22;5016368;28;20128;-75
2022/05/25 11:47:59;;;;;;;21.77;6.38;;;;;;;29.13;33.96;94879.69;5010803;28;20528;-75
2022/05/25 11:50:37;;;;;;;18.90;5.60;;;;;;;29.10;33.68;94875.78;5029244;28;20525;-74
2022/05/25 11:53:25;;;;;;;20.48;4.93;;;;;;;29.15;32.38;94870.16;5027646;28;20844;-75
2022/05/25 11:56:26;;;;;;;24.10;4.40;;;;;;;29.19;32.18;94875.59;4995425;28;20037;-75
2022/05/25 11:59:14;;;;;;;12.00;5.05;;;;;;;29.24;32.91;94876.09;5010844;28;20091;-74
2022/05/25 12:02:06;;;;;;;13.43;4.75;;;;;;;29.24;30.32;94868.06;5013991;28;20513;-74
2022/05/25 12:04:41;;;;;;;26.05;4.82;;;;;;;29.23;32.50;94863.84;5002614;28;20088;-75
2022/05/25 12:07:31;;;;;;;19.23;4.97;;;;;;;29.20;32.74;94853.81;5027963;28;20041;-74
2022/05/25 12:10:24;;;;;;;20.48;4.57;;;;;;;29.24;28.85;94851.22;4992542;28;20029;-75
2022/05/25 12:13:04;;;;;;;11.00;4.10;;;;;;;29.24;32.00;94851.22;5027183;28;20045;-74
2022/05/25 12:15:38;;;;;;;15.07;4.93;;;;;;;29.23;30.70;94847.75;5010241;28;20026;-74